Strona główna
METAR-TAF:

METAR-TAF

Lotnisko :

Pembrey, Walia

Szerokość geograficzna: 51-43N, Długość geograficzna: 004-22W, wysokość: 3 m

Aktualna obserwacja pogody

Raport powstał 36 minut temu, godzina 19:50 UTC
Wiatr 26 kt od południowo-południowy zachód
Temperatura 11°C
Wilgotność 87%
Ciśnienie 1007 hPa
Widzialność: 7000 m

METAR: EGOP 071950Z AUTO 20026KT 7000 // BKN011/// 11/09 Q1007

czas: 20:26 (20:26 UTC)


TAF: brakujący

Obserwacja i prognoza pogody dla ponad 4000 lotnisk (raport METAR i TAF).

Dostępne stacje oznaczono żółtymi i czerwonymi punktami na mapie.

Najedź kursorem aby zobaczyć nazwę stacji.

Kliknij aby zobaczyć obserwacje i prognozy pogody.

Aby zmienić mapę: kliknij na zielony przycisk z czarnym krzyżykiem, aby powiększyć; na zielony przycisk z myślnikiem, aby pomniejszyć; na zielone strzałki, aby przejść do map sąsiednich.


METAR-TAF: